Time;durP1;ratioP1;P1;durP2;ratioP2;P2;SDS_P1;SDS_P2;PMS_P1;PMS_P2;Temp;Humidity;BMP_temperature;BMP_pressure;BME280_temperature;BME280_humidity;BME280_pressure;Samples;Min_cycle;Max_cycle;Signal;HPM_P1;HPM_P2
2022/08/04 00:02:27;;;;;;;5.40;3.60;;;;;;;18.33;100.00;62760.06;5092157;28;20191;-76
2022/08/04 00:05:02;;;;;;;4.10;3.70;;;;;;;18.47;100.00;62775.22;5092659;28;20199;-77
2022/08/04 00:07:39;;;;;;;4.90;3.90;;;;;;;-141.28;100.00;46144.22;5076742;28;20230;-75
2022/08/04 00:10:09;;;;;;;6.47;4.10;;;;;;;-141.28;100.00;46148.16;5072821;28;20663;-76
2022/08/04 00:12:42;;;;;;;6.17;3.80;;;;;;;-141.28;100.00;46085.41;5092179;28;20673;-75
2022/08/04 00:15:12;;;;;;;4.50;4.10;;;;;;;-141.28;100.00;46063.84;5079377;28;20642;-76
2022/08/04 00:17:44;;;;;;;4.70;4.20;;;;;;;-141.28;100.00;46057.97;5061780;28;20200;-75
2022/08/04 00:20:18;;;;;;;7.07;3.90;;;;;;;-141.28;100.00;46069.75;5075241;28;20204;-75
2022/08/04 00:22:47;;;;;;;6.53;4.40;;;;;;;-141.28;100.00;46065.81;5072707;28;20200;-75
2022/08/04 00:25:16;;;;;;;9.63;4.33;;;;;;;-141.28;100.00;46057.97;5072286;28;20224;-75
2022/08/04 00:27:44;;;;;;;5.70;4.33;;;;;;;-141.28;100.00;46063.84;5072395;28;20192;-76
2022/08/04 00:30:11;;;;;;;5.20;4.43;;;;;;;-141.28;100.00;46057.97;5072562;28;20196;-75
2022/08/04 00:32:41;;;;;;;5.30;4.60;;;;;;;-141.28;100.00;46057.97;5071499;28;20697;-76
2022/08/04 00:35:09;;;;;;;6.53;4.80;;;;;;;-141.28;100.00;46054.06;5071835;28;20620;-76
2022/08/04 00:37:38;;;;;;;7.47;5.23;;;;;;;-141.28;100.00;46046.22;5073254;28;20257;-77
2022/08/04 00:40:15;;;;;;;7.90;4.90;;;;;;;-141.28;100.00;46052.09;5080126;28;20233;-75
2022/08/04 00:42:50;;;;;;;7.10;4.70;;;;;;;-141.28;100.00;46054.06;5091904;28;20650;-76
2022/08/04 00:45:41;;;;;;;9.73;4.90;;;;;;;-141.28;100.00;46054.06;5083194;28;20290;-75
2022/08/04 00:48:18;;;;;;;5.90;4.40;;;;;;;-141.28;100.00;46034.44;5072307;28;20196;-77
2022/08/04 00:50:52;;;;;;;6.93;4.43;;;;;;;-141.28;100.00;46026.59;5075837;28;20271;-75
2022/08/04 00:53:31;;;;;;;6.23;4.27;;;;;;;-141.28;100.00;45987.41;5091895;28;20192;-76
2022/08/04 00:56:15;;;;;;;5.43;4.53;;;;;;;-141.28;100.00;46014.84;5091440;28;20225;-76
2022/08/04 00:59:02;;;;;;;7.90;4.17;;;;;;;-141.28;100.00;46026.59;5074843;28;20254;-76
2022/08/04 01:01:45;;;;;;;4.83;4.33;;;;;;;-141.28;100.00;46024.66;5074211;28;20200;-75
2022/08/04 01:04:20;;;;;;;6.53;4.33;;;;;;;-141.28;100.00;46030.53;5076302;28;20279;-74
2022/08/04 01:07:05;;;;;;;9.23;4.30;;;;;;;-141.28;100.00;46024.66;5075373;28;20225;-75
2022/08/04 01:09:44;;;;;;;8.93;5.00;;;;;;;-141.28;100.00;46014.84;5073030;28;20200;-74
2022/08/04 01:12:29;;;;;;;9.33;4.90;;;;;;;-141.28;100.00;46014.84;5071471;28;20244;-75
2022/08/04 01:15:05;;;;;;;5.43;4.53;;;;;;;-141.28;100.00;46010.94;5071410;28;20226;-75
2022/08/04 01:17:48;;;;;;;5.00;4.50;;;;;;;-141.28;100.00;46001.13;5072435;28;20206;-76
2022/08/04 01:20:21;;;;;;;11.33;4.90;;;;;;;-141.28;100.00;46003.09;5070827;28;20196;-76
2022/08/04 01:23:18;;;;;;;7.20;4.67;;;;;;;-141.28;100.00;45991.31;5071009;28;20211;-75
2022/08/04 01:26:02;;;;;;;7.80;4.17;;;;;;;-141.28;100.00;45997.22;5085704;28;20585;-76
2022/08/04 01:28:42;;;;;;;9.83;4.90;;;;;;;-141.28;100.00;45979.56;5077848;28;20574;-74
2022/08/04 01:31:21;;;;;;;7.07;4.63;;;;;;;-141.28;100.00;45987.41;5077472;28;20199;-76
2022/08/04 01:33:52;;;;;;;8.27;5.00;;;;;;;-141.28;100.00;45995.25;5086867;28;20665;-74
2022/08/04 01:36:22;;;;;;;9.00;4.07;;;;;;;-141.28;100.00;45983.47;5071115;28;20228;-76
2022/08/04 01:38:49;;;;;;;7.03;4.33;;;;;;;-141.28;100.00;46010.94;5071203;28;20205;-75
2022/08/04 01:41:20;;;;;;;6.20;4.90;;;;;;;-141.28;100.00;46014.84;5071178;28;20238;-74
2022/08/04 01:43:47;;;;;;;8.93;5.80;;;;;;;-141.28;100.00;46012.88;5070950;28;20196;-77
2022/08/04 01:46:17;;;;;;;9.47;5.53;;;;;;;-141.28;100.00;46026.59;5084039;28;20231;-76
2022/08/04 01:48:46;;;;;;;9.67;5.73;;;;;;;-141.28;100.00;46018.78;5081622;28;20196;-76
2022/08/04 01:51:16;;;;;;;7.27;5.37;;;;;;;-141.28;100.00;46044.25;5072473;28;20337;-76
2022/08/04 01:53:44;;;;;;;6.77;5.57;;;;;;;-141.28;100.00;46034.44;5080382;28;20199;-75
2022/08/04 01:56:12;;;;;;;5.87;5.23;;;;;;;-141.28;100.00;46054.06;5076521;28;20706;-74
2022/08/04 01:58:41;;;;;;;5.37;4.73;;;;;;;-141.28;100.00;46052.09;5090611;28;20195;-77
2022/08/04 02:01:11;;;;;;;5.97;5.10;;;;;;;-141.28;100.00;46048.16;5094647;28;20234;-75
2022/08/04 02:03:41;;;;;;;8.03;4.50;;;;;;;-141.28;100.00;46054.06;5085266;28;20509;-75
2022/08/04 02:06:18;;;;;;;5.83;4.87;;;;;;;-141.28;100.00;46065.81;5075346;28;20556;-76
2022/08/04 02:08:51;;;;;;;6.00;4.50;;;;;;;-141.28;100.00;46081.50;5074609;28;20203;-77
2022/08/04 02:11:22;;;;;;;7.53;4.73;;;;;;;-141.28;100.00;46093.25;5087991;28;20196;-76
2022/08/04 02:14:12;;;;;;;12.20;5.00;;;;;;;-141.28;100.00;46079.53;5062437;28;20347;-75
2022/08/04 02:16:44;;;;;;;10.20;5.33;;;;;;;-141.28;100.00;46101.09;5065770;28;20243;-75
2022/08/04 02:19:22;;;;;;;7.83;5.20;;;;;;;-141.28;100.00;46099.13;5074931;28;20200;-75
2022/08/04 02:21:56;;;;;;;6.17;4.90;;;;;;;-141.28;100.00;46101.09;5074422;28;20541;-74
2022/08/04 02:24:27;;;;;;;11.10;6.43;;;;;;;-141.28;100.00;46118.75;5086933;28;20222;-77
2022/08/04 02:26:57;;;;;;;9.97;6.23;;;;;;;-141.28;100.00;46116.78;5080917;28;20535;-76
2022/08/04 02:29:34;;;;;;;10.30;6.10;;;;;;;-141.28;100.00;46124.63;5094544;28;20204;-75
2022/08/04 02:32:05;;;;;;;7.50;5.97;;;;;;;-141.28;100.00;46132.47;5070792;28;20195;-74
2022/08/04 02:34:42;;;;;;;9.27;6.73;;;;;;;-141.28;100.00;46140.31;5093454;28;20739;-76
2022/08/04 02:37:11;;;;;;;7.27;5.80;;;;;;;-141.28;100.00;46152.06;5093940;28;20199;-76
2022/08/04 02:39:38;;;;;;;9.17;6.63;;;;;;;-141.28;100.00;46152.06;5093485;28;20195;-75
2022/08/04 02:42:06;;;;;;;14.57;7.20;;;;;;;-141.28;100.00;46175.59;5094009;28;20195;-75
2022/08/04 02:44:37;;;;;;;11.53;7.17;;;;;;;-141.28;100.00;46163.84;5091374;28;20670;-75
2022/08/04 02:47:06;;;;;;;10.87;8.23;;;;;;;-141.28;100.00;46191.28;5083731;28;20245;-76
2022/08/04 02:49:37;;;;;;;15.47;8.53;;;;;;;-141.28;100.00;46206.97;5078692;28;20286;-75
2022/08/04 02:52:07;;;;;;;11.33;8.37;;;;;;;-141.28;100.00;46210.88;5074341;28;20279;-76
2022/08/04 02:54:39;;;;;;;13.00;8.40;;;;;;;-141.28;100.00;46226.56;5079225;28;20198;-74
2022/08/04 02:57:11;;;;;;;26.20;9.37;;;;;;;-141.28;100.00;46250.09;5087781;28;20210;-75
2022/08/04 03:00:00;;;;;;;12.57;8.27;;;;;;;-141.28;100.00;46261.84;5073790;28;20200;-76
2022/08/04 03:02:36;;;;;;;14.70;11.20;;;;;;;-141.28;100.00;46269.69;5074139;28;20204;-74
2022/08/04 03:05:13;;;;;;;14.00;10.57;;;;;;;-141.28;100.00;46291.25;5083711;28;20201;-76
2022/08/04 03:08:07;;;;;;;13.67;9.40;;;;;;;-141.28;100.00;46297.13;5090861;28;20574;-76
2022/08/04 03:11:03;;;;;;;13.60;9.67;;;;;;;-141.28;100.00;46301.06;5072865;28;20442;-75
2022/08/04 03:14:08;;;;;;;12.43;8.90;;;;;;;-141.28;100.00;46301.06;5072987;28;20220;-74
2022/08/04 03:17:27;;;;;;;8.67;7.77;;;;;;;-141.28;100.00;46310.88;5070547;28;20246;-75
2022/08/04 03:20:29;;;;;;;8.60;7.10;;;;;;;-141.28;100.00;46314.78;5071246;28;20199;-75
2022/08/04 03:23:29;;;;;;;7.67;6.67;;;;;;;-141.28;100.00;46316.75;5085952;28;20227;-76
2022/08/04 03:26:49;;;;;;;8.93;7.00;;;;;;;-141.28;100.00;46328.50;5086239;28;20216;-75
2022/08/04 03:29:36;;;;;;;10.53;8.00;;;;;;;-141.28;100.00;46340.28;4987075;28;20210;-75
2022/08/04 03:32:28;;;;;;;9.70;7.90;;;;;;;-141.28;100.00;46344.19;5011544;28;20197;-74
2022/08/04 03:35:24;;;;;;;10.00;7.77;;;;;;;-141.28;100.00;46354.00;5055266;28;20232;-75
2022/08/04 03:38:17;;;;;;;8.30;5.60;;;;;;;-141.28;100.00;46350.06;5065131;28;20309;-75
2022/08/04 03:41:04;;;;;;;9.80;5.93;;;;;;;-141.28;100.00;46352.03;5092538;28;20663;-75
2022/08/04 03:44:03;;;;;;;8.17;5.23;;;;;;;-141.28;100.00;46355.94;5092773;28;20199;-74
2022/08/04 03:46:47;;;;;;;12.70;7.17;;;;;;;-141.28;100.00;46367.72;5074142;28;20199;-74
2022/08/04 03:49:47;;;;;;;11.57;5.70;;;;;;;-141.28;100.00;46371.63;5093438;28;20204;-77
2022/08/04 03:55:37;;;;;;;7.20;4.60;;;;;;;-141.28;100.00;46391.25;5078662;28;20213;-74
2022/08/04 03:58:37;;;;;;;8.70;6.20;;;;;;;-141.28;100.00;46403.00;5079274;28;20208;-76
2022/08/04 04:01:21;;;;;;;16.53;7.23;;;;;;;-141.28;100.00;46414.75;5067042;28;20207;-75
2022/08/04 04:04:09;;;;;;;11.07;7.00;;;;;;;-141.28;100.00;46397.13;5080706;28;20721;-76
2022/08/04 04:07:04;;;;;;;16.53;8.17;;;;;;;-141.28;100.00;46401.03;5063307;28;20204;-74
2022/08/04 04:09:59;;;;;;;12.87;9.30;;;;;;;-141.28;100.00;46399.09;5072200;28;20200;-76
2022/08/04 04:13:02;;;;;;;15.37;10.90;;;;;;;-141.28;100.00;46406.94;5072349;28;20196;-76
2022/08/04 04:16:16;;;;;;;22.90;12.97;;;;;;;-141.28;100.00;46418.69;5072541;28;20239;-75
2022/08/04 04:18:57;;;;;;;19.23;11.70;;;;;;;-141.28;100.00;46424.56;5057935;28;20579;-75
2022/08/04 04:21:35;;;;;;;18.37;11.20;;;;;;;-141.28;100.00;46399.09;5073241;28;20199;-74
2022/08/04 04:24:16;;;;;;;12.87;10.10;;;;;;;-141.28;100.00;46389.28;5072133;28;20249;-75
2022/08/04 04:26:57;;;;;;;13.27;9.80;;;;;;;-141.28;100.00;46406.94;5072481;28;20223;-74
2022/08/04 04:29:54;;;;;;;12.87;9.10;;;;;;;-141.28;100.00;46438.28;5068433;28;20196;-76
2022/08/04 04:32:35;;;;;;;11.57;7.83;;;;;;;-141.28;100.00;46432.41;5083860;28;20669;-77
2022/08/04 04:35:17;;;;;;;14.53;7.50;;;;;;;-141.28;100.00;46418.69;5077706;28;20225;-76
2022/08/04 04:38:06;;;;;;;12.17;7.93;;;;;;;-141.28;100.00;46469.66;5072595;28;20608;-76
2022/08/04 04:40:47;;;;;;;9.83;7.37;;;;;;;-141.28;100.00;46489.28;5072142;28;20204;-78
2022/08/04 04:43:31;;;;;;;13.10;6.83;;;;;;;-141.28;100.00;46477.50;5071843;28;20199;-76
2022/08/04 04:46:06;;;;;;;10.37;6.00;;;;;;;-141.28;100.00;46473.59;5071703;28;20690;-75
2022/08/04 04:48:47;;;;;;;8.30;5.93;;;;;;;-141.28;100.00;46503.00;5063100;28;20210;-76
2022/08/04 04:51:22;;;;;;;10.30;5.70;;;;;;;-141.28;100.00;46524.56;5071750;28;20188;-78
2022/08/04 04:53:56;;;;;;;7.27;5.57;;;;;;;-141.28;100.00;46548.09;5074533;28;20196;-77
2022/08/04 04:56:32;;;;;;;7.90;5.77;;;;;;;-141.28;100.00;46583.38;5082896;28;20230;-75
2022/08/04 04:59:02;;;;;;;6.73;5.80;;;;;;;-141.28;100.00;46591.22;5071716;28;20203;-75
2022/08/04 05:02:02;;;;;;;9.60;6.53;;;;;;;-141.28;100.00;46618.66;5084858;28;20203;-76
2022/08/04 05:04:48;;;;;;;11.40;5.97;;;;;;;-141.28;100.00;46630.44;5075371;28;20211;-76
2022/08/04 05:07:42;;;;;;;8.73;6.00;;;;;;;-141.28;100.00;46634.34;5071741;28;20195;-75
2022/08/04 05:10:27;;;;;;;8.40;5.80;;;;;;;-141.28;100.00;46626.50;5069336;28;20568;-75
2022/08/04 05:13:11;;;;;;;6.70;5.53;;;;;;;-141.28;100.00;46618.66;5086655;28;20248;-77
2022/08/04 05:15:43;;;;;;;11.10;6.13;;;;;;;-141.28;100.00;46610.81;5071197;28;20216;-76
2022/08/04 05:18:16;;;;;;;10.30;6.07;;;;;;;-141.28;100.00;46628.47;5071545;28;20215;-76
2022/08/04 05:20:55;;;;;;;8.57;6.40;;;;;;;-141.28;100.00;46602.97;5086943;28;20202;-75
2022/08/04 05:23:26;;;;;;;10.60;5.90;;;;;;;-141.28;100.00;46599.06;5075062;28;20573;-76
2022/08/04 05:25:58;;;;;;;9.60;6.70;;;;;;;-141.28;100.00;46597.09;5071622;28;20219;-76
2022/08/04 05:28:28;;;;;;;7.33;5.83;;;;;;;-141.28;100.00;46653.97;5072066;28;20203;-77
2022/08/04 05:31:05;;;;;;;10.83;8.23;;;;;;;-141.28;100.00;46601.03;5075803;28;20211;-74
2022/08/04 05:33:39;;;;;;;17.60;8.97;;;;;;;-141.28;100.00;46628.47;5070555;28;20255;-74
2022/08/04 05:36:14;;;;;;;14.00;10.17;;;;;;;-141.28;100.00;46630.44;5071328;28;20231;-74
2022/08/04 05:38:43;;;;;;;14.73;9.23;;;;;;;-141.28;100.00;46653.97;5091090;28;20218;-76
2022/08/04 05:41:16;;;;;;;15.37;10.27;;;;;;;-141.28;100.00;46646.13;5075273;28;20584;-75
2022/08/04 05:43:47;;;;;;;10.23;8.20;;;;;;;-141.28;100.00;46634.34;5071111;28;20204;-76
2022/08/04 05:46:18;;;;;;;10.40;7.53;;;;;;;-141.28;100.00;46644.16;5087255;28;20212;-76
2022/08/04 05:48:49;;;;;;;9.03;7.40;;;;;;;-141.28;100.00;46650.03;5091530;28;20204;-78
2022/08/04 05:51:21;;;;;;;14.73;7.60;;;;;;;-141.28;100.00;46663.75;5090318;28;20203;-76
2022/08/04 05:53:57;;;;;;;13.07;7.17;;;;;;;-141.28;100.00;46685.31;5091139;28;20206;-74
2022/08/04 05:56:26;;;;;;;9.37;6.97;;;;;;;-141.28;100.00;46683.38;5090482;28;20227;-75
2022/08/04 05:58:55;;;;;;;8.20;7.27;;;;;;;-141.28;100.00;46614.75;5091360;28;20565;-77
2022/08/04 06:01:24;;;;;;;16.67;8.50;;;;;;;-141.28;100.00;46606.91;5078096;28;20206;-76
2022/08/04 06:03:55;;;;;;;13.43;7.63;;;;;;;-141.28;100.00;46602.97;5090328;28;20210;-75
2022/08/04 06:06:26;;;;;;;8.47;7.63;;;;;;;-141.28;100.00;46620.63;5091133;28;20203;-76
2022/08/04 06:09:02;;;;;;;12.43;8.20;;;;;;;-141.28;100.00;46701.00;5075263;28;20204;-77
2022/08/04 06:11:31;;;;;;;18.73;7.47;;;;;;;-141.28;100.00;46622.59;5089695;28;20233;-76
2022/08/04 06:14:08;;;;;;;8.07;7.10;;;;;;;-141.28;100.00;46618.66;5077969;28;20195;-75
2022/08/04 06:16:39;;;;;;;19.10;7.90;;;;;;;-141.28;100.00;46665.72;5071298;28;20224;-76
2022/08/04 06:19:10;;;;;;;16.87;6.90;;;;;;;-141.28;100.00;46657.88;5086842;28;20196;-76
2022/08/04 06:21:42;;;;;;;11.93;6.40;;;;;;;-141.28;100.00;46693.16;5081217;28;20204;-75
2022/08/04 06:24:15;;;;;;;10.67;6.63;;;;;;;-141.28;100.00;46720.63;5075109;28;20198;-74
2022/08/04 06:26:44;;;;;;;9.93;6.00;;;;;;;-141.28;100.00;46728.47;5090982;28;20216;-76
2022/08/04 06:29:22;;;;;;;10.07;5.93;;;;;;;-141.28;100.00;46763.75;5089382;28;20227;-76
2022/08/04 06:31:57;;;;;;;8.90;5.27;;;;;;;-141.28;100.00;46810.81;5090218;28;20199;-76
2022/08/04 06:34:27;;;;;;;6.73;5.50;;;;;;;-141.28;100.00;46852.00;5090737;28;20269;-77
2022/08/04 06:37:00;;;;;;;8.83;4.67;;;;;;;-141.28;100.00;46865.72;5090371;28;20243;-77
2022/08/04 06:39:29;;;;;;;8.43;5.33;;;;;;;-141.28;100.00;46826.50;5080835;28;20752;-75
2022/08/04 06:41:57;;;;;;;11.30;5.27;;;;;;;-141.28;100.00;46814.72;5087716;28;20208;-75
2022/08/04 06:44:26;;;;;;;9.17;4.67;;;;;;;-141.28;100.00;46775.53;5080549;28;20593;-74
2022/08/04 06:46:56;;;;;;;11.97;5.03;;;;;;;-141.28;100.00;46767.69;5074216;28;20216;-75
2022/08/04 06:49:26;;;;;;;15.40;5.30;;;;;;;-141.28;100.00;46791.22;5074885;28;20214;-74
2022/08/04 06:51:58;;;;;;;8.00;5.03;;;;;;;-141.28;100.00;46795.13;5075442;28;20273;-77
2022/08/04 06:54:27;;;;;;;12.73;5.93;;;;;;;-141.28;100.00;46769.63;5074234;28;20615;-76
2022/08/04 06:56:58;;;;;;;11.17;5.43;;;;;;;-141.28;100.00;46720.63;5074293;28;20216;-74
2022/08/04 06:59:29;;;;;;;10.53;5.70;;;;;;;-141.28;100.00;46722.59;5074719;28;20200;-78
2022/08/04 07:01:57;;;;;;;9.17;5.57;;;;;;;-141.28;100.00;46773.56;5077666;28;20566;-75
2022/08/04 07:04:26;;;;;;;8.67;5.17;;;;;;;-141.28;100.00;46744.16;5076647;28;20615;-75
2022/08/04 07:06:53;;;;;;;28.23;5.43;;;;;;;-141.28;100.00;46753.94;5074469;28;20204;-75
2022/08/04 07:09:22;;;;;;;14.90;5.97;;;;;;;-141.28;100.00;46732.38;5076389;28;20200;-76
2022/08/04 07:11:49;;;;;;;9.47;5.93;;;;;;;-141.28;100.00;46748.06;5084939;28;20258;-75
2022/08/04 07:14:18;;;;;;;9.70;5.77;;;;;;;-141.28;100.00;46765.72;5074129;28;20199;-75
2022/08/04 07:16:47;;;;;;;11.53;6.43;;;;;;;-141.28;100.00;46740.22;5074261;28;20224;-75
2022/08/04 07:19:20;;;;;;;6.70;5.33;;;;;;;-141.28;100.00;46734.34;5073442;28;20261;-75
2022/08/04 07:21:47;;;;;;;10.77;5.80;;;;;;;-141.28;100.00;46720.63;5073994;28;20200;-74
2022/08/04 07:24:16;;;;;;;21.60;6.47;;;;;;;-141.28;100.00;46681.41;5091948;28;20296;-77
2022/08/04 07:26:49;;;;;;;8.87;6.40;;;;;;;-141.28;100.00;46683.38;5091030;28;20280;-77
2022/08/04 07:29:16;;;;;;;13.30;6.50;;;;;;;-141.28;100.00;46622.59;5076622;28;20220;-76
2022/08/04 07:31:44;;;;;;;16.73;6.20;;;;;;;-141.28;100.00;46583.38;5077999;28;20219;-76
2022/08/04 07:34:11;;;;;;;12.07;6.77;;;;;;;-141.28;100.00;46559.84;5073967;28;20232;-76
2022/08/04 07:36:38;;;;;;;10.60;6.20;;;;;;;-141.28;100.00;46569.66;5081850;28;20570;-76
2022/08/04 07:39:06;;;;;;;10.93;6.67;;;;;;;-141.28;100.00;46555.94;5078564;28;20295;-76
2022/08/04 07:41:33;;;;;;;19.43;7.27;;;;;;;-141.28;100.00;46536.31;5073647;28;20204;-74
2022/08/04 07:44:04;;;;;;;10.50;6.70;;;;;;;-141.28;100.00;46489.28;5073692;28;20213;-75
2022/08/04 07:46:31;;;;;;;9.03;7.27;;;;;;;-141.28;100.00;46563.78;5073584;28;20202;-75
2022/08/04 07:49:00;;;;;;;10.43;7.87;;;;;;;-141.28;100.00;46489.28;5073249;28;20228;-75
2022/08/04 07:51:29;;;;;;;13.17;7.47;;;;;;;-141.28;100.00;46483.38;5076013;28;20196;-76
2022/08/04 07:53:57;;;;;;;21.13;6.87;;;;;;;-141.28;100.00;46481.44;5073130;28;20204;-74
2022/08/04 07:56:26;;;;;;;9.40;7.50;;;;;;;-141.28;100.00;46493.19;5073092;28;20228;-75
2022/08/04 07:58:53;;;;;;;14.57;7.73;;;;;;;-141.28;100.00;46473.59;5074016;28;20245;-75
2022/08/04 08:01:24;;;;;;;10.90;7.57;;;;;;;-141.28;100.00;46438.28;5086147;28;20192;-75
2022/08/04 08:03:54;;;;;;;11.10;7.83;;;;;;;-141.28;100.00;46459.84;5072912;28;20207;-77
2022/08/04 08:06:21;;;;;;;9.57;6.93;;;;;;;-141.28;100.00;46426.53;5072928;28;20804;-77
2022/08/04 08:08:49;;;;;;;13.33;6.87;;;;;;;-141.28;100.00;46363.78;5072725;28;20193;-76
2022/08/04 08:11:18;;;;;;;10.93;7.70;;;;;;;-141.28;100.00;46301.06;5072792;28;20207;-76
2022/08/04 08:13:46;;;;;;;13.17;7.00;;;;;;;-141.28;100.00;46255.97;5072827;28;20203;-76
2022/08/04 08:16:13;;;;;;;9.10;7.60;;;;;;;-141.28;100.00;46195.19;5072958;28;20265;-76
2022/08/04 08:18:42;;;;;;;12.67;7.00;;;;;;;-141.28;100.00;46159.91;5072977;28;20306;-76
2022/08/04 08:21:10;;;;;;;12.23;6.50;;;;;;;-141.28;100.00;46161.88;5092021;28;20242;-75
2022/08/04 08:23:40;;;;;;;11.20;6.80;;;;;;;-141.28;100.00;46061.91;5093156;27;20210;-77
2022/08/04 08:26:09;;;;;;;17.30;7.30;;;;;;;-141.28;100.00;46026.59;5066526;28;20565;-77
2022/08/04 08:28:38;;;;;;;14.87;6.83;;;;;;;-141.28;100.00;46024.66;5092298;27;20572;-76
2022/08/04 08:31:06;;;;;;;11.50;6.73;;;;;;;-141.28;100.00;46010.94;5092255;27;20279;-77
2022/08/04 08:33:35;;;;;;;13.50;7.60;;;;;;;-141.28;100.00;45959.97;5091405;27;20238;-75
2022/08/04 08:36:08;;;;;;;11.93;7.07;;;;;;;-141.28;100.00;45971.72;5091960;28;20199;-77
2022/08/04 08:38:42;;;;;;;28.30;8.87;;;;;;;-141.28;100.00;45883.50;5087979;28;20326;-76
2022/08/04 08:41:45;;;;;;;9.93;6.30;;;;;;;-141.28;100.00;45807.06;5082981;28;20203;-75
2022/08/04 08:44:42;;;;;;;9.03;5.57;;;;;;;-141.28;100.00;45720.81;5071497;28;20195;-76
2022/08/04 08:47:28;;;;;;;7.87;6.00;;;;;;;-141.28;100.00;45685.53;5066976;28;20260;-76
2022/08/04 08:50:25;;;;;;;13.10;6.30;;;;;;;-141.28;100.00;45642.41;5090249;28;20217;-75
2022/08/04 08:53:37;;;;;;;8.97;5.70;;;;;;;-141.28;100.00;45589.50;5090184;28;20206;-75
2022/08/04 08:56:19;;;;;;;8.77;5.30;;;;;;;-141.28;100.00;45587.53;5027693;28;20207;-76
2022/08/04 08:59:02;;;;;;;13.47;6.00;;;;;;;-141.28;100.00;45581.66;5080480;28;20203;-75
2022/08/04 09:01:49;;;;;;;9.50;5.37;;;;;;;-141.28;100.00;45560.09;5085553;28;20662;-76
2022/08/04 09:04:53;;;;;;;8.07;5.57;;;;;;;-141.28;100.00;45556.16;5074843;28;20201;-75
2022/08/04 09:07:51;;;;;;;9.57;5.43;;;;;;;-141.28;100.00;45554.22;5072550;28;20287;-76
2022/08/04 09:10:28;;;;;;;9.87;5.03;;;;;;;-141.28;100.00;45546.38;5061857;28;20651;-76
2022/08/04 09:13:04;;;;;;;8.10;4.80;;;;;;;-141.28;100.00;45591.44;5085278;28;20196;-75
2022/08/04 09:15:42;;;;;;;7.37;4.80;;;;;;;-141.28;100.00;45599.28;5072267;28;20216;-76
2022/08/04 09:18:17;;;;;;;6.03;4.47;;;;;;;-141.28;100.00;45562.06;5059812;28;20687;-75
2022/08/04 09:20:50;;;;;;;10.97;4.70;;;;;;;-141.28;100.00;45583.63;5071984;28;20212;-76
2022/08/04 09:23:21;;;;;;;5.47;4.57;;;;;;;-141.28;100.00;45534.63;5072034;28;20211;-76
2022/08/04 09:26:06;;;;;;;8.17;4.13;;;;;;;-141.28;100.00;45542.47;5071906;28;20651;-78
2022/08/04 09:28:47;;;;;;;7.07;4.57;;;;;;;-141.28;100.00;45630.66;5071765;28;20202;-78
2022/08/04 09:31:20;;;;;;;9.93;4.60;;;;;;;-141.28;100.00;45697.28;5072947;28;20261;-77
2022/08/04 09:33:58;;;;;;;10.90;4.73;;;;;;;-141.28;100.00;45654.19;5071999;28;20231;-75
2022/08/04 09:36:35;;;;;;;9.70;4.90;;;;;;;-141.28;100.00;45464.06;5071930;28;20206;-77
2022/08/04 09:39:11;;;;;;;9.83;5.30;;;;;;;-141.28;100.00;45417.00;5071490;28;20206;-74
2022/08/04 09:41:53;;;;;;;7.33;4.77;;;;;;;-141.28;100.00;45515.00;5084356;28;20196;-74
2022/08/04 09:44:32;;;;;;;11.40;4.93;;;;;;;-141.28;100.00;45513.06;5066953;28;20202;-76
2022/08/04 09:47:10;;;;;;;12.23;4.60;;;;;;;-141.28;100.00;45516.97;5071445;28;20205;-75
2022/08/04 09:49:44;;;;;;;10.50;4.40;;;;;;;-141.28;100.00;45638.50;5071392;28;20255;-77
2022/08/04 09:52:23;;;;;;;6.77;3.90;;;;;;;-141.28;100.00;45956.03;5074390;28;20203;-77
2022/08/04 09:55:05;;;;;;;8.30;4.43;;;;;;;-141.28;100.00;46250.09;5070061;28;20230;-77
2022/08/04 09:57:45;;;;;;;5.57;4.00;;;;;;;-141.28;100.00;48087.50;5081717;28;20678;-75
2022/08/04 10:00:15;;;;;;;4.87;4.20;;;;;;;-141.28;100.00;49419.59;5065285;28;20642;-76
2022/08/04 10:02:53;;;;;;;5.93;4.83;;;;;;;-141.28;100.00;49588.34;5090538;28;20598;-77
2022/08/04 10:05:25;;;;;;;5.47;3.90;;;;;;;-141.28;100.00;49564.81;5082934;28;20204;-76
2022/08/04 10:08:04;;;;;;;11.33;4.53;;;;;;;-141.28;100.00;49399.97;5084321;28;20203;-76
2022/08/04 10:10:47;;;;;;;11.40;4.23;;;;;;;-141.28;100.00;49325.41;5082746;28;20203;-77
2022/08/04 10:13:28;;;;;;;7.40;4.50;;;;;;;-141.28;100.00;49317.56;5090856;28;20211;-75
2022/08/04 10:16:11;;;;;;;9.27;5.40;;;;;;;-141.28;100.00;49286.16;5090018;28;20219;-76
2022/08/04 10:18:56;;;;;;;7.63;4.80;;;;;;;-141.28;100.00;49454.94;5091018;28;20226;-75
2022/08/04 10:21:33;;;;;;;11.17;5.83;;;;;;;-141.28;100.00;49352.88;5068541;28;20213;-75
2022/08/04 10:24:36;;;;;;;8.50;5.27;;;;;;;-141.28;100.00;49380.34;5092204;28;20674;-75
2022/08/04 10:27:10;;;;;;;12.43;5.47;;;;;;;-141.28;100.00;49619.75;5074939;28;20205;-76
2022/08/04 10:29:46;;;;;;;7.50;4.60;;;;;;;-141.28;100.00;49600.13;5062128;28;20199;-77
2022/08/04 10:32:19;;;;;;;17.07;5.47;;;;;;;-141.28;100.00;49401.94;5077862;28;20203;-75
2022/08/04 10:35:07;;;;;;;8.47;5.10;;;;;;;-141.28;100.00;49553.03;5087722;28;20237;-74
2022/08/04 10:37:51;;;;;;;9.97;5.07;;;;;;;-141.28;100.00;49651.16;5094121;28;20226;-75
2022/08/04 10:40:37;;;;;;;14.20;5.40;;;;;;;-141.28;100.00;49735.53;5084432;28;20202;-76
2022/08/04 10:43:11;;;;;;;8.53;4.50;;;;;;;-141.28;100.00;49505.94;5094226;28;20219;-75
2022/08/04 10:45:51;;;;;;;7.00;4.90;;;;;;;-141.28;100.00;49197.88;5080642;28;20207;-75
2022/08/04 10:48:34;;;;;;;12.67;5.30;;;;;;;-141.28;100.00;49080.16;5079881;28;20226;-76
2022/08/04 10:51:10;;;;;;;11.43;4.80;;;;;;;-141.28;100.00;49015.41;5089970;28;20230;-76
2022/08/04 10:53:41;;;;;;;11.63;4.50;;;;;;;-141.28;100.00;48756.44;5094657;28;20618;-75
2022/08/04 10:56:15;;;;;;;7.23;4.17;;;;;;;-141.28;100.00;48689.72;5094711;28;20324;-74
2022/08/04 10:58:49;;;;;;;9.70;4.10;;;;;;;-141.28;100.00;48626.94;5088657;28;20239;-74
2022/08/04 11:01:24;;;;;;;4.40;3.40;;;;;;;-141.28;100.00;48634.78;5084433;28;20250;-75
2022/08/04 11:03:56;;;;;;;6.77;3.10;;;;;;;-141.28;96.58;48570.06;5090147;28;20221;-77
2022/08/04 11:06:25;;;;;;;5.73;3.10;;;;;;;-141.28;96.26;48654.41;5074499;28;20197;-75
2022/08/04 11:08:55;;;;;;;4.40;2.90;;;;;;;-141.28;92.51;48654.41;5074329;28;20643;-76
2022/08/04 11:11:30;;;;;;;5.63;3.30;;;;;;;-141.28;86.86;48656.38;5073893;28;20226;-75
2022/08/04 11:14:03;;;;;;;7.30;3.20;;;;;;;-141.28;88.59;48654.41;5074359;28;20205;-76
2022/08/04 11:16:39;;;;;;;11.90;3.57;;;;;;;-141.28;88.43;48634.78;5074401;28;20198;-76
2022/08/04 11:19:22;;;;;;;7.70;3.00;;;;;;;-141.28;72.69;48634.78;5074523;28;20222;-76
2022/08/04 11:21:55;;;;;;;7.10;3.30;;;;;;;-141.28;64.82;48611.25;5062014;28;20206;-75
2022/08/04 11:24:28;;;;;;;4.77;3.23;;;;;;;-141.28;58.84;48579.88;5073000;28;20196;-76
2022/08/04 11:27:00;;;;;;;8.97;2.83;;;;;;;-141.28;54.83;48532.78;5074428;28;20207;-79
2022/08/04 11:29:35;;;;;;;5.87;2.40;;;;;;;-141.28;56.97;48560.25;5069062;28;20204;-76
2022/08/04 11:32:10;;;;;;;3.47;2.90;;;;;;;-141.28;58.88;48581.81;5093025;28;20265;-76
2022/08/04 11:34:44;;;;;;;14.90;3.87;;;;;;;-141.28;57.44;48572.00;5075242;28;20720;-75
2022/08/04 11:37:17;;;;;;;4.00;2.70;;;;;;;-141.28;58.12;48913.38;5074631;28;20620;-77
2022/08/04 11:39:50;;;;;;;3.97;2.60;;;;;;;-141.28;62.36;48607.31;5081935;28;20204;-76
2022/08/04 11:42:22;;;;;;;9.63;3.23;;;;;;;-141.28;61.00;48595.56;5092743;28;20188;-76
2022/08/04 11:44:52;;;;;;;9.30;2.97;;;;;;;-141.28;61.43;48603.41;5092156;28;20208;-75
2022/08/04 11:47:29;;;;;;;3.27;2.97;;;;;;;-141.28;63.88;48630.88;5073853;28;20280;-77
2022/08/04 11:50:03;;;;;;;4.93;2.90;;;;;;;-141.28;67.42;48644.59;5073515;28;20203;-76
2022/08/04 11:52:32;;;;;;;5.93;2.90;;;;;;;-141.28;65.15;48646.56;5073288;28;20651;-77
2022/08/04 11:55:03;;;;;;;3.97;2.77;;;;;;;-141.28;63.13;48642.63;5072538;28;20210;-76